createdAt,value
2023-02-24T00:18:24.282Z,28.70
2023-02-24T00:48:27.284Z,26.85
2023-02-24T01:18:30.221Z,34.17
2023-02-24T01:48:33.177Z,32.08
2023-02-24T02:18:45.661Z,34.28
2023-02-24T02:48:51.291Z,36.00
2023-02-24T03:18:57.336Z,41.60
2023-02-24T03:49:05.986Z,35.30
2023-02-24T04:19:13.773Z,36.53
2023-02-24T05:19:20.725Z,38.15
2023-02-24T05:49:25.294Z,40.42
2023-02-24T06:19:28.275Z,29.92
2023-02-24T06:49:31.277Z,30.48
2023-02-24T07:19:34.422Z,29.73
2023-02-24T07:49:40.183Z,28.95
2023-02-24T08:19:43.223Z,31.90
2023-02-24T08:49:47.075Z,37.80
2023-02-24T09:19:50.913Z,30.27
2023-02-24T09:49:56.154Z,20.70
2023-02-24T10:20:00.914Z,18.98
2023-02-24T10:50:05.704Z,14.32
2023-02-24T11:20:19.244Z,14.52
2023-02-24T11:50:31.077Z,13.85
2023-02-24T12:20:38.252Z,19.88
2023-02-24T12:50:47.868Z,14.48
2023-02-24T13:21:02.531Z,17.42
2023-02-24T13:51:19.965Z,10.23
2023-02-24T14:21:25.392Z,9.07
2023-02-24T14:51:33.081Z,9.18
2023-02-24T15:21:40.983Z,13.93
2023-02-24T15:51:45.620Z,7.07
2023-02-24T16:21:48.621Z,13.77
2023-02-24T16:51:52.797Z,11.38
2023-02-24T17:21:55.894Z,8.45
2023-02-24T17:51:59.543Z,9.63
2023-02-24T18:22:02.561Z,13.18
2023-02-24T18:52:05.599Z,15.65
2023-02-24T19:22:09.761Z,12.45
2023-02-24T19:52:12.754Z,14.48
2023-02-24T20:22:15.846Z,17.98
2023-02-24T21:22:22.469Z,10.65
2023-02-24T21:52:25.461Z,10.88
2023-02-24T22:22:28.954Z,10.60
2023-02-24T22:52:32.121Z,14.27
2023-02-24T23:22:35.102Z,7.72
2023-02-24T23:52:38.017Z,13.68
